This is the latest recevied weather packets stored in our database for station/object ALAKES. If no packets are shown the sender has not sent any weather packets the latest 10 day(s).
| Time | Temp. | Humidity | Pressure | Rain* | Wind** | Luminosity | Snow |
|---|---|---|---|---|---|---|---|
| 1787498294 | 9.44° C | 54% | - | 0 mm | - | - | - |
| 1787497672 | 9.44° C | 53% | - | 0 mm | - | - | - |
| 1787497050 | 8.89° C | 54% | - | 0 mm | - | - | - |
| 1787496422 | 8.33° C | 55% | - | 0 mm | - | - | - |
| 1787495803 | 8.33° C | 55% | - | 0 mm | - | - | - |
| 1787495223 | 7.78° C | 56% | - | 0 mm | - | - | - |
| 1787495181 | 7.78° C | 56% | - | 0 mm | - | - | - |
| 1787494555 | 7.78° C | 56% | - | 0 mm | - | - | - |
| 1787493978 | 7.78° C | 56% | - | 0 mm | - | - | - |
| 1787493939 | 7.78° C | 56% | - | 0 mm | - | - | - |
| 1787493315 | 7.78° C | 56% | - | 0 mm | - | - | - |
| 1787492689 | 7.22° C | 58% | - | 0 mm | - | - | - |
| 1787492066 | 6.67° C | 62% | - | 0 mm | - | - | - |
| 1787491586 | 6.11° C | 65% | - | 0 mm | - | - | - |
| 1787491445 | 6.11° C | 65% | - | 0 mm | - | - | - |
| 1787490817 | 6.11° C | 65% | - | 0 mm | - | - | - |
| 1787490196 | 6.11° C | 65% | - | 0 mm | - | - | - |
| 1787489571 | 6.11° C | 65% | - | 0 mm | - | - | - |
| 1787488949 | 6.11° C | 69% | - | 0 mm | - | - | - |
| 1787488331 | 6.11° C | 69% | - | 0 mm | - | - | - |
| 1787487703 | 6.11° C | 68% | - | 0 mm | - | - | - |
| 1787487081 | 6.67° C | 66% | - | 0 mm | - | - | - |
| 1787486463 | 6.67° C | 65% | - | 0 mm | - | - | - |
| 1787485837 | 6.67° C | 65% | - | 0 mm | - | - | - |
| 1787485215 | 6.67° C | 64% | - | 0 mm | - | - | - |
* Rain latest 24 hours (hover to see other rain measurements)
** Current wind speed in m/s (hover to see current wind gust speed)